1873 Hurricane NOT_NAMED (1873275N16340)


IBTrACS version v04r00. Visit IBTrACS website for data access.
Please direct all questions to the IBTrACS Q and A forum

Storm track - Intensity - Wind Radii - Intensity Data - Source Data - All data

Summary Information

Storm ID 1873275N16340
Start Oct 1 12Z
Max Intensity 65 kt (Oct 3 06Z)
End Oct 8 12Z
ATCF IDs
Track status Best track data.

Storm track plot

Map of storm track

Intensity plots

Map of storm track

Radial wind information

No radial wind information for this storm


Position and Intensity Table

BASIN ISO_TIME_________ NATURE LAT LON MLC WIND
degrees north degrees east kts
NA 1873-10-01 12:00:00 TS 15.70 -20.20 35
NA 15:00:00 TS 15.76 -21.30 35
NA 18:00:00 TS 15.80 -22.40 35
NA 21:00:00 TS 15.81 -23.50 37
NA 1873-10-02 00:00:00 TS 15.80 -24.60 40
NA 03:00:00 TS 15.80 -25.70 42
NA 06:00:00 TS 15.80 -26.80 45
NA 09:00:00 TS 15.78 -27.92 47
NA 12:00:00 TS 15.80 -29.00 50
NA 15:00:00 TS 15.88 -30.01 52
NA 18:00:00 TS 16.00 -31.00 55
NA 21:00:00 TS 16.10 -32.00 57
NA 1873-10-03 00:00:00 TS 16.20 -33.00 60
NA 03:00:00 TS 16.31 -34.00 62
NA 06:00:00 TS 16.40 -35.00 65
NA 09:00:00 TS 16.44 -36.00 65
NA 12:00:00 TS 16.50 -37.00 65
NA 15:00:00 TS 16.64 -38.01 65
NA 18:00:00 TS 16.80 -39.00 65
NA 21:00:00 TS 16.90 -39.96 65
NA 1873-10-04 00:00:00 TS 17.00 -40.90 65
NA 03:00:00 TS 17.15 -41.84 65
NA 06:00:00 TS 17.30 -42.80 65
NA 09:00:00 TS 17.36 -43.89 65
NA 12:00:00 TS 17.50 -44.80 65
NA 15:00:00 TS 17.86 -45.25 65
NA 18:00:00 TS 18.30 -45.50 65
NA 21:00:00 TS 18.65 -45.85 65
NA 1873-10-05 00:00:00 TS 19.00 -46.20 65
NA 03:00:00 TS 19.40 -46.56 65
NA 06:00:00 TS 19.80 -46.90 65
NA 09:00:00 TS 20.16 -47.29 65
NA 12:00:00 TS 20.50 -47.50 65
NA 15:00:00 TS 20.86 -47.33 65
NA 18:00:00 TS 21.20 -47.00 65
NA 21:00:00 TS 21.51 -46.81 65
NA 1873-10-06 00:00:00 TS 21.80 -46.60 65
NA 03:00:00 TS 22.10 -46.27 65
NA 06:00:00 TS 22.40 -45.90 65
NA 09:00:00 TS 22.68 -45.60 65
NA 12:00:00 TS 23.00 -45.20 65
NA 15:00:00 TS 23.39 -44.55 65
NA 18:00:00 TS 23.80 -43.80 65
NA 21:00:00 TS 24.15 -43.10 65
NA 1873-10-07 00:00:00 TS 24.50 -42.40 65
NA 03:00:00 TS 24.90 -41.70 62
NA 06:00:00 TS 25.30 -41.00 60
NA 09:00:00 TS 25.63 -40.28 57
NA 12:00:00 TS 26.00 -39.60 55
NA 15:00:00 TS 26.48 -38.98 52
NA 18:00:00 TS 27.00 -38.40 50
NA 21:00:00 TS 27.50 -37.85 47
NA 1873-10-08 00:00:00 TS 28.00 -37.30 45
NA 03:00:00 TS 28.50 -36.70 42
NA 06:00:00 TS 29.00 -36.10 40
NA 09:00:00 TS 29.50 -35.54 37
NA 12:00:00 TS 30.00 -35.00 35

Source Information

Agency Information
USA
TOKYO
CMA
HKO
NEWDELHI
REUNION
BOM
NADI
WELLINGTON
DS824
TD9636
TD9635
NEUMANN
MLC

All available IBTrACS Data

SEASON BASIN SUBBASIN ISO_TIME_________ NATURE LAT LON DIST2LAND LANDFALL IFLAG USA SSHS MLC LAT MLC LON MLC CLASS MLC WIND STORM SPEED STORM DIR
Year degrees north degrees east km km 1 degrees north degrees east kts kts degrees
1873 NA NA 1873-10-01 12:00:00 TS 15.70 -20.20 310 310 _____________O -1 15.70 -20.20 TS 35 21 273
1873 NA NA 15:00:00 TS 15.76 -21.30 426 426 _____________P -1 15.76 -21.30 TS 35 21 273
1873 NA NA 18:00:00 TS 15.80 -22.40 540 540 _____________O -1 15.80 -22.40 TS 35 21 271
1873 NA NA 21:00:00 TS 15.81 -23.50 655 655 _____________P -1 15.81 -23.50 TS 37 21 270
1873 NA NA 1873-10-02 00:00:00 TS 15.80 -24.60 771 771 _____________O -1 15.80 -24.60 TS 40 21 270
1873 NA NA 03:00:00 TS 15.80 -25.70 888 888 _____________P -1 15.80 -25.70 TS 42 21 270
1873 NA NA 06:00:00 TS 15.80 -26.80 1005 1005 _____________O -1 15.80 -26.80 TS 45 21 270
1873 NA NA 09:00:00 TS 15.78 -27.92 1122 1122 _____________P -1 15.78 -27.92 TS 47 21 270
1873 NA NA 12:00:00 TS 15.80 -29.00 1240 1240 _____________O -1 15.80 -29.00 TS 50 20 273
1873 NA NA 15:00:00 TS 15.88 -30.01 1347 1347 _____________P -1 15.88 -30.01 TS 52 19 276
1873 NA NA 18:00:00 TS 16.00 -31.00 1455 1455 _____________O -1 16.00 -31.00 TS 55 19 276
1873 NA NA 21:00:00 TS 16.10 -32.00 1562 1562 _____________P -1 16.10 -32.00 TS 57 19 276
1873 NA NA 1873-10-03 00:00:00 TS 16.20 -33.00 1669 1669 _____________O -1 16.20 -33.00 TS 60 19 276
1873 NA NA 03:00:00 TS 16.31 -34.00 1777 1777 _____________P -1 16.31 -34.00 TS 62 19 276
1873 NA NA 06:00:00 TS 16.40 -35.00 1884 1884 _____________O -1 16.40 -35.00 HU 65 19 274
1873 NA NA 09:00:00 TS 16.44 -36.00 1990 1990 _____________P -1 16.44 -36.00 HU 65 19 273
1873 NA NA 12:00:00 TS 16.50 -37.00 2075 2001 _____________O -1 16.50 -37.00 HU 65 19 276
1873 NA NA 15:00:00 TS 16.64 -38.01 2001 1947 _____________P -1 16.64 -38.01 HU 65 19 279
1873 NA NA 18:00:00 TS 16.80 -39.00 1939 1881 _____________O -1 16.80 -39.00 HU 65 19 278
1873 NA NA 21:00:00 TS 16.90 -39.96 1874 1826 _____________P -1 16.90 -39.96 HU 65 18 276
1873 NA NA 1873-10-04 00:00:00 TS 17.00 -40.90 1819 1768 _____________O -1 17.00 -40.90 HU 65 18 278
1873 NA NA 03:00:00 TS 17.15 -41.84 1768 1731 _____________P -1 17.15 -41.84 HU 65 18 279
1873 NA NA 06:00:00 TS 17.30 -42.80 1724 1666 _____________O -1 17.30 -42.80 HU 65 20 276
1873 NA NA 09:00:00 TS 17.36 -43.89 1662 1618 _____________P -1 17.36 -43.89 HU 65 19 276
1873 NA NA 12:00:00 TS 17.50 -44.80 1618 1612 _____________O -1 17.50 -44.80 HU 65 14 291
1873 NA NA 15:00:00 TS 17.86 -45.25 1634 1628 _____________P -1 17.86 -45.25 HU 65 10 320
1873 NA NA 18:00:00 TS 18.30 -45.50 1657 1657 _____________O -1 18.30 -45.50 HU 65 10 324
1873 NA NA 21:00:00 TS 18.65 -45.85 1667 1667 _____________P -1 18.65 -45.85 HU 65 10 317
1873 NA NA 1873-10-05 00:00:00 TS 19.00 -46.20 1692 1692 _____________O -1 19.00 -46.20 HU 65 10 318
1873 NA NA 03:00:00 TS 19.40 -46.56 1715 1715 _____________P -1 19.40 -46.56 HU 65 10 320
1873 NA NA 06:00:00 TS 19.80 -46.90 1744 1744 _____________O -1 19.80 -46.90 HU 65 10 318
1873 NA NA 09:00:00 TS 20.16 -47.29 1766 1761 _____________P -1 20.16 -47.29 HU 65 9 321
1873 NA NA 12:00:00 TS 20.50 -47.50 1787 1787 _____________O -1 20.50 -47.50 HU 65 7 357
1873 NA NA 15:00:00 TS 20.86 -47.33 1836 1836 _____________P -1 20.86 -47.33 HU 65 8 34
1873 NA NA 18:00:00 TS 21.20 -47.00 1880 1880 _____________O -1 21.20 -47.00 HU 65 8 36
1873 NA NA 21:00:00 TS 21.51 -46.81 1919 1919 _____________P -1 21.51 -46.81 HU 65 7 32
1873 NA NA 1873-10-06 00:00:00 TS 21.80 -46.60 1958 1958 _____________O -1 21.80 -46.60 HU 65 8 40
1873 NA NA 03:00:00 TS 22.10 -46.27 2002 2002 _____________P -1 22.10 -46.27 HU 65 9 47
1873 NA NA 06:00:00 TS 22.40 -45.90 2050 2050 _____________O -1 22.40 -45.90 HU 65 9 47
1873 NA NA 09:00:00 TS 22.68 -45.60 2094 2094 _____________P -1 22.68 -45.60 HU 65 9 47
1873 NA NA 12:00:00 TS 23.00 -45.20 2142 2142 _____________O -1 23.00 -45.20 HU 65 12 54
1873 NA NA 15:00:00 TS 23.39 -44.55 2208 2208 _____________P -1 23.39 -44.55 HU 65 15 58
1873 NA NA 18:00:00 TS 23.80 -43.80 2284 2284 _____________O -1 23.80 -43.80 HU 65 15 60
1873 NA NA 21:00:00 TS 24.15 -43.10 2346 2346 _____________P -1 24.15 -43.10 HU 65 15 61
1873 NA NA 1873-10-07 00:00:00 TS 24.50 -42.40 2419 2419 _____________O -1 24.50 -42.40 HU 65 15 60
1873 NA NA 03:00:00 TS 24.90 -41.70 2493 2418 _____________P -1 24.90 -41.70 HU 62 15 58
1873 NA NA 06:00:00 TS 25.30 -41.00 2418 2342 _____________O -1 25.30 -41.00 TS 60 15 60
1873 NA NA 09:00:00 TS 25.63 -40.28 2342 2264 _____________P -1 25.63 -40.28 TS 57 14 61
1873 NA NA 12:00:00 TS 26.00 -39.60 2264 2197 _____________O -1 26.00 -39.60 TS 55 14 54
1873 NA NA 15:00:00 TS 26.48 -38.98 2195 2127 _____________P -1 26.48 -38.98 TS 52 15 47
1873 NA NA 18:00:00 TS 27.00 -38.40 2127 2070 _____________O -1 27.00 -38.40 TS 50 14 45
1873 NA NA 21:00:00 TS 27.50 -37.85 2060 2005 _____________P -1 27.50 -37.85 TS 47 14 44
1873 NA NA 1873-10-08 00:00:00 TS 28.00 -37.30 2005 1942 _____________O -1 28.00 -37.30 TS 45 14 45
1873 NA NA 03:00:00 TS 28.50 -36.70 1942 1880 _____________P -1 28.50 -36.70 TS 42 15 47
1873 NA NA 06:00:00 TS 29.00 -36.10 1880 1830 _____________O -1 29.00 -36.10 TS 40 14 45
1873 NA NA 09:00:00 TS 29.50 -35.54 1821 1773 _____________P -1 29.50 -35.54 TS 37 14 44
1873 NA NA 12:00:00 TS 30.00 -35.00 1773 _____________O -1 30.00 -35.00 TS 35 14 43